sensor_id;sensor_type;location;lat;lon;timestamp;P1;durP1;ratioP1;P2;durP2;ratioP2
2802;SDS011;1409;51.154;6.938;2024-02-14T00:00:32;2.40;;;2.10;;
2802;SDS011;1409;51.154;6.938;2024-02-14T00:03:02;3.00;;;2.47;;
2802;SDS011;1409;51.154;6.938;2024-02-14T00:05:32;4.13;;;2.20;;
2802;SDS011;1409;51.154;6.938;2024-02-14T00:08:01;5.00;;;2.30;;
2802;SDS011;1409;51.154;6.938;2024-02-14T00:10:29;2.83;;;1.83;;
2802;SDS011;1409;51.154;6.938;2024-02-14T00:12:58;3.30;;;2.10;;
2802;SDS011;1409;51.154;6.938;2024-02-14T00:15:26;3.03;;;2.20;;
2802;SDS011;1409;51.154;6.938;2024-02-14T00:17:55;4.37;;;2.17;;
2802;SDS011;1409;51.154;6.938;2024-02-14T00:20:25;2.77;;;2.37;;
2802;SDS011;1409;51.154;6.938;2024-02-14T00:22:54;3.37;;;2.10;;
2802;SDS011;1409;51.154;6.938;2024-02-14T00:25:22;4.13;;;2.27;;
2802;SDS011;1409;51.154;6.938;2024-02-14T00:27:51;2.67;;;2.07;;
2802;SDS011;1409;51.154;6.938;2024-02-14T00:30:20;3.10;;;1.90;;
2802;SDS011;1409;51.154;6.938;2024-02-14T00:32:50;2.47;;;2.00;;
2802;SDS011;1409;51.154;6.938;2024-02-14T00:35:18;2.70;;;2.23;;
2802;SDS011;1409;51.154;6.938;2024-02-14T00:37:49;4.20;;;2.43;;
2802;SDS011;1409;51.154;6.938;2024-02-14T00:40:18;3.07;;;2.10;;
2802;SDS011;1409;51.154;6.938;2024-02-14T00:42:46;6.27;;;2.30;;
2802;SDS011;1409;51.154;6.938;2024-02-14T00:45:15;4.37;;;2.10;;
2802;SDS011;1409;51.154;6.938;2024-02-14T00:47:44;2.93;;;2.20;;
2802;SDS011;1409;51.154;6.938;2024-02-14T00:50:12;2.23;;;1.93;;
2802;SDS011;1409;51.154;6.938;2024-02-14T00:52:41;3.67;;;2.33;;
2802;SDS011;1409;51.154;6.938;2024-02-14T00:55:11;4.13;;;1.70;;
2802;SDS011;1409;51.154;6.938;2024-02-14T00:57:39;2.70;;;1.73;;
2802;SDS011;1409;51.154;6.938;2024-02-14T01:00:09;2.53;;;1.47;;
2802;SDS011;1409;51.154;6.938;2024-02-14T01:02:38;4.40;;;1.63;;
2802;SDS011;1409;51.154;6.938;2024-02-14T01:05:07;1.73;;;1.30;;
2802;SDS011;1409;51.154;6.938;2024-02-14T01:07:35;2.23;;;1.40;;
2802;SDS011;1409;51.154;6.938;2024-02-14T01:10:04;2.30;;;1.50;;
2802;SDS011;1409;51.154;6.938;2024-02-14T01:12:34;2.57;;;1.30;;
2802;SDS011;1409;51.154;6.938;2024-02-14T01:15:03;2.43;;;1.23;;
2802;SDS011;1409;51.154;6.938;2024-02-14T01:17:31;2.47;;;1.50;;
2802;SDS011;1409;51.154;6.938;2024-02-14T01:20:03;1.07;;;1.00;;
2802;SDS011;1409;51.154;6.938;2024-02-14T01:22:32;3.20;;;1.50;;
2802;SDS011;1409;51.154;6.938;2024-02-14T01:25:00;1.20;;;1.10;;
2802;SDS011;1409;51.154;6.938;2024-02-14T01:27:29;0.90;;;0.70;;
2802;SDS011;1409;51.154;6.938;2024-02-14T01:29:59;1.30;;;1.17;;
2802;SDS011;1409;51.154;6.938;2024-02-14T01:32:27;1.80;;;1.13;;
2802;SDS011;1409;51.154;6.938;2024-02-14T01:34:56;2.30;;;0.90;;
2802;SDS011;1409;51.154;6.938;2024-02-14T01:37:26;1.67;;;0.93;;
2802;SDS011;1409;51.154;6.938;2024-02-14T01:39:55;2.00;;;1.37;;
2802;SDS011;1409;51.154;6.938;2024-02-14T01:42:24;1.97;;;1.20;;
2802;SDS011;1409;51.154;6.938;2024-02-14T01:44:54;1.73;;;1.00;;
2802;SDS011;1409;51.154;6.938;2024-02-14T01:47:24;4.00;;;1.27;;
2802;SDS011;1409;51.154;6.938;2024-02-14T01:49:52;1.80;;;1.47;;
2802;SDS011;1409;51.154;6.938;2024-02-14T01:52:21;3.93;;;1.13;;
2802;SDS011;1409;51.154;6.938;2024-02-14T01:54:49;2.30;;;1.20;;
2802;SDS011;1409;51.154;6.938;2024-02-14T01:57:19;1.47;;;1.10;;
2802;SDS011;1409;51.154;6.938;2024-02-14T01:59:47;0.80;;;0.80;;
2802;SDS011;1409;51.154;6.938;2024-02-14T02:02:17;1.10;;;0.93;;
2802;SDS011;1409;51.154;6.938;2024-02-14T02:04:47;1.60;;;1.13;;
2802;SDS011;1409;51.154;6.938;2024-02-14T02:07:17;1.57;;;1.17;;
2802;SDS011;1409;51.154;6.938;2024-02-14T02:09:46;3.03;;;1.10;;
2802;SDS011;1409;51.154;6.938;2024-02-14T02:12:14;1.57;;;0.90;;
2802;SDS011;1409;51.154;6.938;2024-02-14T02:14:43;1.73;;;1.00;;
2802;SDS011;1409;51.154;6.938;2024-02-14T02:17:11;1.80;;;1.03;;
2802;SDS011;1409;51.154;6.938;2024-02-14T02:19:40;1.30;;;0.70;;
2802;SDS011;1409;51.154;6.938;2024-02-14T02:22:10;1.23;;;0.77;;
2802;SDS011;1409;51.154;6.938;2024-02-14T02:24:40;1.77;;;1.20;;
2802;SDS011;1409;51.154;6.938;2024-02-14T02:27:08;1.80;;;1.10;;
2802;SDS011;1409;51.154;6.938;2024-02-14T02:29:37;2.40;;;0.93;;
2802;SDS011;1409;51.154;6.938;2024-02-14T02:32:05;1.23;;;1.10;;
2802;SDS011;1409;51.154;6.938;2024-02-14T02:34:36;1.10;;;0.97;;
2802;SDS011;1409;51.154;6.938;2024-02-14T02:37:05;1.43;;;0.67;;
2802;SDS011;1409;51.154;6.938;2024-02-14T02:39:35;1.20;;;1.10;;
2802;SDS011;1409;51.154;6.938;2024-02-14T02:42:05;2.80;;;0.90;;
2802;SDS011;1409;51.154;6.938;2024-02-14T02:44:38;0.70;;;0.70;;
2802;SDS011;1409;51.154;6.938;2024-02-14T02:47:06;1.63;;;0.73;;
2802;SDS011;1409;51.154;6.938;2024-02-14T02:49:37;1.37;;;1.27;;
2802;SDS011;1409;51.154;6.938;2024-02-14T02:52:05;2.17;;;1.20;;
2802;SDS011;1409;51.154;6.938;2024-02-14T02:54:34;2.40;;;0.87;;
2802;SDS011;1409;51.154;6.938;2024-02-14T02:57:02;1.87;;;0.93;;
2802;SDS011;1409;51.154;6.938;2024-02-14T02:59:32;2.27;;;1.07;;
2802;SDS011;1409;51.154;6.938;2024-02-14T03:02:01;1.77;;;0.63;;
2802;SDS011;1409;51.154;6.938;2024-02-14T03:04:35;0.80;;;0.67;;
2802;SDS011;1409;51.154;6.938;2024-02-14T03:07:17;3.30;;;1.00;;
2802;SDS011;1409;51.154;6.938;2024-02-14T03:09:47;1.23;;;1.00;;
2802;SDS011;1409;51.154;6.938;2024-02-14T03:12:16;0.70;;;0.70;;
2802;SDS011;1409;51.154;6.938;2024-02-14T03:14:46;0.83;;;0.70;;
2802;SDS011;1409;51.154;6.938;2024-02-14T03:17:16;0.87;;;0.80;;
2802;SDS011;1409;51.154;6.938;2024-02-14T03:19:44;1.47;;;0.63;;
2802;SDS011;1409;51.154;6.938;2024-02-14T03:22:14;0.63;;;0.63;;
2802;SDS011;1409;51.154;6.938;2024-02-14T03:24:45;1.00;;;0.90;;
2802;SDS011;1409;51.154;6.938;2024-02-14T03:27:13;1.33;;;0.90;;
2802;SDS011;1409;51.154;6.938;2024-02-14T03:29:43;1.97;;;0.87;;
2802;SDS011;1409;51.154;6.938;2024-02-14T03:32:15;1.13;;;0.60;;
2802;SDS011;1409;51.154;6.938;2024-02-14T03:34:43;1.20;;;0.70;;
2802;SDS011;1409;51.154;6.938;2024-02-14T03:37:12;1.43;;;0.90;;
2802;SDS011;1409;51.154;6.938;2024-02-14T03:39:41;0.80;;;0.73;;
2802;SDS011;1409;51.154;6.938;2024-02-14T03:42:09;1.27;;;0.70;;
2802;SDS011;1409;51.154;6.938;2024-02-14T03:44:37;1.93;;;1.07;;
2802;SDS011;1409;51.154;6.938;2024-02-14T03:47:07;0.77;;;0.57;;
2802;SDS011;1409;51.154;6.938;2024-02-14T03:49:37;0.50;;;0.50;;
2802;SDS011;1409;51.154;6.938;2024-02-14T03:52:07;1.00;;;0.80;;
2802;SDS011;1409;51.154;6.938;2024-02-14T03:54:36;3.77;;;1.10;;
2802;SDS011;1409;51.154;6.938;2024-02-14T03:57:05;2.03;;;0.80;;
2802;SDS011;1409;51.154;6.938;2024-02-14T03:59:35;1.80;;;0.90;;
2802;SDS011;1409;51.154;6.938;2024-02-14T04:02:05;1.23;;;0.73;;
2802;SDS011;1409;51.154;6.938;2024-02-14T04:04:40;1.00;;;0.90;;
2802;SDS011;1409;51.154;6.938;2024-02-14T04:07:10;0.83;;;0.60;;
2802;SDS011;1409;51.154;6.938;2024-02-14T04:09:38;0.80;;;0.70;;
2802;SDS011;1409;51.154;6.938;2024-02-14T04:12:07;1.00;;;0.80;;
2802;SDS011;1409;51.154;6.938;2024-02-14T04:14:37;0.83;;;0.70;;
2802;SDS011;1409;51.154;6.938;2024-02-14T04:17:05;3.80;;;1.13;;
2802;SDS011;1409;51.154;6.938;2024-02-14T04:19:35;0.67;;;0.63;;
2802;SDS011;1409;51.154;6.938;2024-02-14T04:22:05;0.90;;;0.73;;
2802;SDS011;1409;51.154;6.938;2024-02-14T04:24:34;1.03;;;0.90;;
2802;SDS011;1409;51.154;6.938;2024-02-14T04:27:03;2.23;;;1.00;;
2802;SDS011;1409;51.154;6.938;2024-02-14T04:29:32;0.50;;;0.50;;
2802;SDS011;1409;51.154;6.938;2024-02-14T04:32:01;0.87;;;0.70;;
2802;SDS011;1409;51.154;6.938;2024-02-14T04:34:30;3.17;;;1.03;;
2802;SDS011;1409;51.154;6.938;2024-02-14T04:36:59;1.17;;;1.07;;
2802;SDS011;1409;51.154;6.938;2024-02-14T04:39:30;1.00;;;1.00;;
2802;SDS011;1409;51.154;6.938;2024-02-14T04:41:59;1.53;;;0.90;;
2802;SDS011;1409;51.154;6.938;2024-02-14T04:44:28;2.00;;;0.80;;
2802;SDS011;1409;51.154;6.938;2024-02-14T04:47:01;0.73;;;0.57;;
2802;SDS011;1409;51.154;6.938;2024-02-14T04:49:29;1.30;;;0.77;;
2802;SDS011;1409;51.154;6.938;2024-02-14T04:51:58;0.90;;;0.90;;
2802;SDS011;1409;51.154;6.938;2024-02-14T04:54:26;1.00;;;0.90;;
2802;SDS011;1409;51.154;6.938;2024-02-14T04:56:56;0.70;;;0.70;;
2802;SDS011;1409;51.154;6.938;2024-02-14T04:59:28;1.23;;;0.93;;
2802;SDS011;1409;51.154;6.938;2024-02-14T05:01:57;1.00;;;0.90;;
2802;SDS011;1409;51.154;6.938;2024-02-14T05:04:25;2.00;;;0.93;;
2802;SDS011;1409;51.154;6.938;2024-02-14T05:06:54;0.97;;;0.90;;
2802;SDS011;1409;51.154;6.938;2024-02-14T05:09:25;1.10;;;0.80;;
2802;SDS011;1409;51.154;6.938;2024-02-14T05:11:53;2.00;;;1.27;;
2802;SDS011;1409;51.154;6.938;2024-02-14T05:14:23;2.20;;;0.90;;
2802;SDS011;1409;51.154;6.938;2024-02-14T05:16:52;1.87;;;1.00;;
2802;SDS011;1409;51.154;6.938;2024-02-14T05:19:22;1.13;;;0.90;;
2802;SDS011;1409;51.154;6.938;2024-02-14T05:21:50;0.70;;;0.70;;
2802;SDS011;1409;51.154;6.938;2024-02-14T05:24:19;1.13;;;0.73;;
2802;SDS011;1409;51.154;6.938;2024-02-14T05:26:47;1.87;;;1.00;;
2802;SDS011;1409;51.154;6.938;2024-02-14T05:29:16;1.70;;;0.90;;
2802;SDS011;1409;51.154;6.938;2024-02-14T05:31:46;1.03;;;0.87;;
2802;SDS011;1409;51.154;6.938;2024-02-14T05:34:15;0.60;;;0.60;;
2802;SDS011;1409;51.154;6.938;2024-02-14T05:36:44;1.80;;;0.80;;
2802;SDS011;1409;51.154;6.938;2024-02-14T05:39:13;1.63;;;0.93;;
2802;SDS011;1409;51.154;6.938;2024-02-14T05:41:42;1.47;;;1.10;;
2802;SDS011;1409;51.154;6.938;2024-02-14T05:44:11;2.33;;;1.13;;
2802;SDS011;1409;51.154;6.938;2024-02-14T05:46:40;1.07;;;0.90;;
2802;SDS011;1409;51.154;6.938;2024-02-14T05:49:10;1.47;;;1.17;;
2802;SDS011;1409;51.154;6.938;2024-02-14T05:51:40;1.50;;;1.17;;
2802;SDS011;1409;51.154;6.938;2024-02-14T05:54:09;0.87;;;0.80;;
2802;SDS011;1409;51.154;6.938;2024-02-14T05:56:37;2.23;;;1.27;;
2802;SDS011;1409;51.154;6.938;2024-02-14T05:59:06;3.23;;;1.13;;
2802;SDS011;1409;51.154;6.938;2024-02-14T06:01:36;2.00;;;1.30;;
2802;SDS011;1409;51.154;6.938;2024-02-14T06:04:04;1.37;;;1.10;;
2802;SDS011;1409;51.154;6.938;2024-02-14T06:06:34;0.97;;;0.87;;
2802;SDS011;1409;51.154;6.938;2024-02-14T06:09:03;1.37;;;1.00;;
2802;SDS011;1409;51.154;6.938;2024-02-14T06:11:36;2.40;;;1.30;;
2802;SDS011;1409;51.154;6.938;2024-02-14T06:14:05;1.70;;;1.30;;
2802;SDS011;1409;51.154;6.938;2024-02-14T06:16:34;0.97;;;0.87;;
2802;SDS011;1409;51.154;6.938;2024-02-14T06:19:03;2.70;;;0.90;;
2802;SDS011;1409;51.154;6.938;2024-02-14T06:21:32;1.27;;;0.93;;
2802;SDS011;1409;51.154;6.938;2024-02-14T06:24:02;2.13;;;1.03;;
2802;SDS011;1409;51.154;6.938;2024-02-14T06:26:31;0.80;;;0.80;;
2802;SDS011;1409;51.154;6.938;2024-02-14T06:29:00;1.63;;;1.23;;
2802;SDS011;1409;51.154;6.938;2024-02-14T06:31:32;1.10;;;1.00;;
2802;SDS011;1409;51.154;6.938;2024-02-14T06:34:01;1.67;;;1.30;;
2802;SDS011;1409;51.154;6.938;2024-02-14T06:36:30;1.43;;;1.20;;
2802;SDS011;1409;51.154;6.938;2024-02-14T06:38:58;1.17;;;1.00;;
2802;SDS011;1409;51.154;6.938;2024-02-14T06:41:28;1.57;;;1.10;;
2802;SDS011;1409;51.154;6.938;2024-02-14T06:43:57;3.67;;;1.07;;
2802;SDS011;1409;51.154;6.938;2024-02-14T06:46:26;1.10;;;1.00;;
2802;SDS011;1409;51.154;6.938;2024-02-14T06:48:55;2.17;;;1.10;;
2802;SDS011;1409;51.154;6.938;2024-02-14T06:51:24;2.40;;;1.17;;
2802;SDS011;1409;51.154;6.938;2024-02-14T06:53:52;3.17;;;2.30;;
2802;SDS011;1409;51.154;6.938;2024-02-14T06:56:21;2.53;;;1.70;;
2802;SDS011;1409;51.154;6.938;2024-02-14T06:58:51;2.07;;;1.13;;
2802;SDS011;1409;51.154;6.938;2024-02-14T07:01:19;2.03;;;1.03;;
2802;SDS011;1409;51.154;6.938;2024-02-14T07:03:49;1.30;;;1.20;;
2802;SDS011;1409;51.154;6.938;2024-02-14T07:06:18;1.73;;;1.10;;
2802;SDS011;1409;51.154;6.938;2024-02-14T07:08:47;2.57;;;0.90;;
2802;SDS011;1409;51.154;6.938;2024-02-14T07:11:16;1.30;;;1.20;;
2802;SDS011;1409;51.154;6.938;2024-02-14T07:13:44;1.53;;;1.07;;
2802;SDS011;1409;51.154;6.938;2024-02-14T07:16:14;0.70;;;0.70;;
2802;SDS011;1409;51.154;6.938;2024-02-14T07:18:43;2.17;;;1.10;;
2802;SDS011;1409;51.154;6.938;2024-02-14T07:21:12;2.13;;;1.40;;
2802;SDS011;1409;51.154;6.938;2024-02-14T07:23:41;1.50;;;1.40;;
2802;SDS011;1409;51.154;6.938;2024-02-14T07:26:09;2.07;;;1.00;;
2802;SDS011;1409;51.154;6.938;2024-02-14T07:28:38;2.50;;;1.50;;
2802;SDS011;1409;51.154;6.938;2024-02-14T07:31:07;1.77;;;1.30;;
2802;SDS011;1409;51.154;6.938;2024-02-14T07:33:37;1.70;;;1.10;;
2802;SDS011;1409;51.154;6.938;2024-02-14T07:36:06;1.43;;;1.30;;
2802;SDS011;1409;51.154;6.938;2024-02-14T07:38:35;1.20;;;1.10;;
2802;SDS011;1409;51.154;6.938;2024-02-14T07:41:04;1.70;;;1.60;;
2802;SDS011;1409;51.154;6.938;2024-02-14T07:46:26;1.87;;;1.40;;
2802;SDS011;1409;51.154;6.938;2024-02-14T07:48:57;2.73;;;1.63;;
2802;SDS011;1409;51.154;6.938;2024-02-14T07:51:26;1.60;;;1.40;;
2802;SDS011;1409;51.154;6.938;2024-02-14T07:53:55;2.53;;;1.30;;
2802;SDS011;1409;51.154;6.938;2024-02-14T07:56:24;1.83;;;0.90;;
2802;SDS011;1409;51.154;6.938;2024-02-14T07:58:53;1.50;;;1.40;;
2802;SDS011;1409;51.154;6.938;2024-02-14T08:01:21;2.47;;;1.40;;
2802;SDS011;1409;51.154;6.938;2024-02-14T08:03:50;1.57;;;1.23;;
2802;SDS011;1409;51.154;6.938;2024-02-14T08:06:19;1.90;;;1.03;;
2802;SDS011;1409;51.154;6.938;2024-02-14T08:08:48;1.60;;;1.00;;
2802;SDS011;1409;51.154;6.938;2024-02-14T08:11:21;1.50;;;1.33;;
2802;SDS011;1409;51.154;6.938;2024-02-14T08:13:49;1.70;;;1.37;;
2802;SDS011;1409;51.154;6.938;2024-02-14T08:16:18;2.30;;;1.30;;
2802;SDS011;1409;51.154;6.938;2024-02-14T08:18:46;1.87;;;1.30;;
2802;SDS011;1409;51.154;6.938;2024-02-14T08:21:17;1.53;;;1.30;;
2802;SDS011;1409;51.154;6.938;2024-02-14T08:23:47;2.17;;;1.50;;
2802;SDS011;1409;51.154;6.938;2024-02-14T08:26:16;1.53;;;1.43;;
2802;SDS011;1409;51.154;6.938;2024-02-14T08:28:45;2.30;;;1.27;;
2802;SDS011;1409;51.154;6.938;2024-02-14T08:31:14;1.53;;;1.37;;
2802;SDS011;1409;51.154;6.938;2024-02-14T08:33:42;1.70;;;1.33;;
2802;SDS011;1409;51.154;6.938;2024-02-14T08:36:11;1.33;;;1.23;;
2802;SDS011;1409;51.154;6.938;2024-02-14T08:38:40;1.50;;;1.40;;
2802;SDS011;1409;51.154;6.938;2024-02-14T08:41:09;1.40;;;1.30;;
2802;SDS011;1409;51.154;6.938;2024-02-14T08:43:38;1.30;;;1.20;;
2802;SDS011;1409;51.154;6.938;2024-02-14T08:46:10;2.33;;;1.27;;
2802;SDS011;1409;51.154;6.938;2024-02-14T08:48:39;2.03;;;1.40;;
2802;SDS011;1409;51.154;6.938;2024-02-14T08:51:12;1.23;;;1.13;;
2802;SDS011;1409;51.154;6.938;2024-02-14T08:53:41;1.20;;;1.10;;
2802;SDS011;1409;51.154;6.938;2024-02-14T08:56:12;1.57;;;1.20;;
2802;SDS011;1409;51.154;6.938;2024-02-14T08:58:41;1.10;;;1.00;;
2802;SDS011;1409;51.154;6.938;2024-02-14T09:01:10;1.17;;;1.00;;
2802;SDS011;1409;51.154;6.938;2024-02-14T09:03:41;1.70;;;1.10;;
2802;SDS011;1409;51.154;6.938;2024-02-14T09:06:15;1.57;;;1.10;;
2802;SDS011;1409;51.154;6.938;2024-02-14T09:08:45;1.30;;;0.97;;
2802;SDS011;1409;51.154;6.938;2024-02-14T09:11:15;1.73;;;1.50;;
2802;SDS011;1409;51.154;6.938;2024-02-14T09:13:44;1.70;;;1.20;;
2802;SDS011;1409;51.154;6.938;2024-02-14T09:16:14;1.80;;;1.07;;
2802;SDS011;1409;51.154;6.938;2024-02-14T09:18:44;2.27;;;1.27;;
2802;SDS011;1409;51.154;6.938;2024-02-14T09:21:13;2.40;;;1.47;;
2802;SDS011;1409;51.154;6.938;2024-02-14T09:23:46;3.10;;;1.30;;
2802;SDS011;1409;51.154;6.938;2024-02-14T09:26:16;1.63;;;1.50;;
2802;SDS011;1409;51.154;6.938;2024-02-14T09:28:44;1.77;;;1.60;;
2802;SDS011;1409;51.154;6.938;2024-02-14T09:31:17;1.93;;;1.50;;
2802;SDS011;1409;51.154;6.938;2024-02-14T09:33:46;1.30;;;1.20;;
2802;SDS011;1409;51.154;6.938;2024-02-14T09:36:15;1.80;;;1.23;;
2802;SDS011;1409;51.154;6.938;2024-02-14T09:38:46;1.50;;;1.20;;
2802;SDS011;1409;51.154;6.938;2024-02-14T09:41:20;1.53;;;1.40;;
2802;SDS011;1409;51.154;6.938;2024-02-14T09:43:50;2.23;;;1.40;;
2802;SDS011;1409;51.154;6.938;2024-02-14T09:46:18;2.10;;;1.23;;
2802;SDS011;1409;51.154;6.938;2024-02-14T09:48:46;1.27;;;0.90;;
2802;SDS011;1409;51.154;6.938;2024-02-14T09:51:15;1.40;;;0.93;;
2802;SDS011;1409;51.154;6.938;2024-02-14T09:53:44;1.53;;;1.00;;
2802;SDS011;1409;51.154;6.938;2024-02-14T09:56:12;2.60;;;1.20;;
2802;SDS011;1409;51.154;6.938;2024-02-14T09:58:45;1.30;;;1.07;;
2802;SDS011;1409;51.154;6.938;2024-02-14T10:01:16;1.33;;;0.77;;
2802;SDS011;1409;51.154;6.938;2024-02-14T10:03:47;1.87;;;1.20;;
2802;SDS011;1409;51.154;6.938;2024-02-14T10:06:15;1.67;;;1.17;;
2802;SDS011;1409;51.154;6.938;2024-02-14T10:08:46;1.37;;;0.80;;
2802;SDS011;1409;51.154;6.938;2024-02-14T10:11:28;1.90;;;0.87;;
2802;SDS011;1409;51.154;6.938;2024-02-14T10:13:59;1.33;;;0.70;;
2802;SDS011;1409;51.154;6.938;2024-02-14T10:16:30;1.03;;;0.70;;
2802;SDS011;1409;51.154;6.938;2024-02-14T10:18:59;0.60;;;0.60;;
2802;SDS011;1409;51.154;6.938;2024-02-14T10:21:28;2.30;;;1.10;;
2802;SDS011;1409;51.154;6.938;2024-02-14T10:23:59;0.90;;;0.70;;
2802;SDS011;1409;51.154;6.938;2024-02-14T10:26:28;0.93;;;0.77;;
2802;SDS011;1409;51.154;6.938;2024-02-14T10:28:57;0.60;;;0.60;;
2802;SDS011;1409;51.154;6.938;2024-02-14T10:31:27;2.37;;;0.90;;
2802;SDS011;1409;51.154;6.938;2024-02-14T10:33:55;3.50;;;0.60;;
2802;SDS011;1409;51.154;6.938;2024-02-14T10:36:24;2.33;;;0.73;;
2802;SDS011;1409;51.154;6.938;2024-02-14T10:38:53;1.47;;;0.50;;
2802;SDS011;1409;51.154;6.938;2024-02-14T10:41:22;1.07;;;0.90;;
2802;SDS011;1409;51.154;6.938;2024-02-14T10:43:51;1.00;;;0.87;;
2802;SDS011;1409;51.154;6.938;2024-02-14T10:46:19;0.93;;;0.67;;
2802;SDS011;1409;51.154;6.938;2024-02-14T10:48:51;1.77;;;0.67;;
2802;SDS011;1409;51.154;6.938;2024-02-14T10:51:22;2.30;;;0.60;;
2802;SDS011;1409;51.154;6.938;2024-02-14T10:53:51;0.87;;;0.80;;
2802;SDS011;1409;51.154;6.938;2024-02-14T10:56:21;2.73;;;1.00;;
2802;SDS011;1409;51.154;6.938;2024-02-14T10:58:50;2.47;;;0.80;;
2802;SDS011;1409;51.154;6.938;2024-02-14T11:01:20;1.97;;;1.10;;
2802;SDS011;1409;51.154;6.938;2024-02-14T11:03:52;1.70;;;0.80;;
2802;SDS011;1409;51.154;6.938;2024-02-14T11:06:22;1.13;;;0.80;;
2802;SDS011;1409;51.154;6.938;2024-02-14T11:08:57;0.83;;;0.80;;
2802;SDS011;1409;51.154;6.938;2024-02-14T11:11:28;0.93;;;0.70;;
2802;SDS011;1409;51.154;6.938;2024-02-14T11:13:57;0.70;;;0.70;;
2802;SDS011;1409;51.154;6.938;2024-02-14T11:16:26;0.63;;;0.60;;
2802;SDS011;1409;51.154;6.938;2024-02-14T11:19:06;2.00;;;1.00;;
2802;SDS011;1409;51.154;6.938;2024-02-14T11:21:39;1.87;;;0.80;;
2802;SDS011;1409;51.154;6.938;2024-02-14T11:24:10;3.33;;;1.73;;
2802;SDS011;1409;51.154;6.938;2024-02-14T11:26:39;3.03;;;1.80;;
2802;SDS011;1409;51.154;6.938;2024-02-14T11:29:07;1.77;;;1.00;;
2802;SDS011;1409;51.154;6.938;2024-02-14T11:31:36;1.90;;;1.20;;
2802;SDS011;1409;51.154;6.938;2024-02-14T11:34:06;2.77;;;1.43;;
2802;SDS011;1409;51.154;6.938;2024-02-14T11:36:35;1.90;;;1.00;;
2802;SDS011;1409;51.154;6.938;2024-02-14T11:39:04;1.50;;;1.10;;
2802;SDS011;1409;51.154;6.938;2024-02-14T11:41:33;2.13;;;1.10;;
2802;SDS011;1409;51.154;6.938;2024-02-14T11:44:02;2.00;;;1.13;;
2802;SDS011;1409;51.154;6.938;2024-02-14T11:46:30;1.90;;;1.40;;
2802;SDS011;1409;51.154;6.938;2024-02-14T11:49:00;2.20;;;1.00;;
2802;SDS011;1409;51.154;6.938;2024-02-14T11:51:31;3.80;;;1.03;;
2802;SDS011;1409;51.154;6.938;2024-02-14T11:54:02;2.47;;;1.40;;
2802;SDS011;1409;51.154;6.938;2024-02-14T11:56:33;2.60;;;0.90;;
2802;SDS011;1409;51.154;6.938;2024-02-14T11:59:02;2.27;;;1.53;;
2802;SDS011;1409;51.154;6.938;2024-02-14T12:01:31;2.23;;;1.17;;
2802;SDS011;1409;51.154;6.938;2024-02-14T12:04:00;1.07;;;0.77;;
2802;SDS011;1409;51.154;6.938;2024-02-14T12:06:31;3.73;;;1.17;;
2802;SDS011;1409;51.154;6.938;2024-02-14T12:09:01;2.83;;;1.00;;
2802;SDS011;1409;51.154;6.938;2024-02-14T12:11:32;1.83;;;1.40;;
2802;SDS011;1409;51.154;6.938;2024-02-14T12:14:01;2.33;;;1.00;;
2802;SDS011;1409;51.154;6.938;2024-02-14T12:16:30;2.90;;;1.37;;
2802;SDS011;1409;51.154;6.938;2024-02-14T12:19:05;0.80;;;0.73;;
2802;SDS011;1409;51.154;6.938;2024-02-14T12:21:37;3.20;;;1.40;;
2802;SDS011;1409;51.154;6.938;2024-02-14T12:24:06;2.83;;;1.23;;
2802;SDS011;1409;51.154;6.938;2024-02-14T12:26:35;1.17;;;1.07;;
2802;SDS011;1409;51.154;6.938;2024-02-14T12:29:04;1.67;;;0.97;;
2802;SDS011;1409;51.154;6.938;2024-02-14T12:31:33;1.47;;;1.13;;
2802;SDS011;1409;51.154;6.938;2024-02-14T12:34:02;5.50;;;1.30;;
2802;SDS011;1409;51.154;6.938;2024-02-14T12:36:33;2.20;;;1.27;;
2802;SDS011;1409;51.154;6.938;2024-02-14T12:39:03;3.40;;;1.33;;
2802;SDS011;1409;51.154;6.938;2024-02-14T12:41:32;2.60;;;1.27;;
2802;SDS011;1409;51.154;6.938;2024-02-14T12:44:03;3.57;;;1.37;;
2802;SDS011;1409;51.154;6.938;2024-02-14T12:46:32;2.33;;;1.00;;
2802;SDS011;1409;51.154;6.938;2024-02-14T12:49:04;2.33;;;1.63;;
2802;SDS011;1409;51.154;6.938;2024-02-14T12:51:33;2.80;;;1.17;;
2802;SDS011;1409;51.154;6.938;2024-02-14T12:54:04;1.83;;;1.00;;
2802;SDS011;1409;51.154;6.938;2024-02-14T12:56:33;4.73;;;1.53;;
2802;SDS011;1409;51.154;6.938;2024-02-14T12:59:02;1.67;;;1.30;;
2802;SDS011;1409;51.154;6.938;2024-02-14T13:01:30;2.60;;;1.17;;
2802;SDS011;1409;51.154;6.938;2024-02-14T13:03:59;2.03;;;1.40;;
2802;SDS011;1409;51.154;6.938;2024-02-14T13:06:29;4.00;;;1.20;;
2802;SDS011;1409;51.154;6.938;2024-02-14T13:08:58;1.40;;;1.20;;
2802;SDS011;1409;51.154;6.938;2024-02-14T13:11:31;1.20;;;1.10;;
2802;SDS011;1409;51.154;6.938;2024-02-14T13:14:00;1.83;;;1.00;;
2802;SDS011;1409;51.154;6.938;2024-02-14T13:16:29;2.50;;;1.30;;
2802;SDS011;1409;51.154;6.938;2024-02-14T13:18:58;1.13;;;1.03;;
2802;SDS011;1409;51.154;6.938;2024-02-14T13:21:27;1.90;;;0.80;;
2802;SDS011;1409;51.154;6.938;2024-02-14T13:23:55;0.90;;;0.80;;
2802;SDS011;1409;51.154;6.938;2024-02-14T13:26:24;1.50;;;0.90;;
2802;SDS011;1409;51.154;6.938;2024-02-14T13:28:56;1.03;;;0.80;;
2802;SDS011;1409;51.154;6.938;2024-02-14T13:31:24;0.80;;;0.70;;
2802;SDS011;1409;51.154;6.938;2024-02-14T13:33:52;0.80;;;0.80;;
2802;SDS011;1409;51.154;6.938;2024-02-14T13:36:21;1.17;;;0.70;;
2802;SDS011;1409;51.154;6.938;2024-02-14T13:38:50;1.40;;;0.90;;
2802;SDS011;1409;51.154;6.938;2024-02-14T13:41:18;1.10;;;1.00;;
2802;SDS011;1409;51.154;6.938;2024-02-14T13:43:47;0.97;;;0.90;;
2802;SDS011;1409;51.154;6.938;2024-02-14T13:46:17;2.70;;;1.10;;
2802;SDS011;1409;51.154;6.938;2024-02-14T13:48:46;1.37;;;0.70;;
2802;SDS011;1409;51.154;6.938;2024-02-14T13:51:14;1.00;;;0.90;;
2802;SDS011;1409;51.154;6.938;2024-02-14T13:53:43;1.30;;;0.90;;
2802;SDS011;1409;51.154;6.938;2024-02-14T13:56:12;1.33;;;0.87;;
2802;SDS011;1409;51.154;6.938;2024-02-14T13:58:42;1.83;;;1.27;;
2802;SDS011;1409;51.154;6.938;2024-02-14T14:01:11;3.37;;;1.30;;
2802;SDS011;1409;51.154;6.938;2024-02-14T14:03:40;1.23;;;0.83;;
2802;SDS011;1409;51.154;6.938;2024-02-14T14:06:09;3.07;;;1.07;;
2802;SDS011;1409;51.154;6.938;2024-02-14T14:08:38;1.93;;;1.33;;
2802;SDS011;1409;51.154;6.938;2024-02-14T14:11:06;1.23;;;1.13;;
2802;SDS011;1409;51.154;6.938;2024-02-14T14:13:35;2.93;;;1.43;;
2802;SDS011;1409;51.154;6.938;2024-02-14T14:16:04;1.50;;;1.10;;
2802;SDS011;1409;51.154;6.938;2024-02-14T14:18:32;1.70;;;1.10;;
2802;SDS011;1409;51.154;6.938;2024-02-14T14:21:02;1.00;;;0.90;;
2802;SDS011;1409;51.154;6.938;2024-02-14T14:23:31;1.47;;;0.77;;
2802;SDS011;1409;51.154;6.938;2024-02-14T14:26:01;4.70;;;1.00;;
2802;SDS011;1409;51.154;6.938;2024-02-14T14:28:29;1.60;;;1.20;;
2802;SDS011;1409;51.154;6.938;2024-02-14T14:30:58;1.83;;;1.10;;
2802;SDS011;1409;51.154;6.938;2024-02-14T14:33:28;1.40;;;1.27;;
2802;SDS011;1409;51.154;6.938;2024-02-14T14:35:57;1.60;;;1.20;;
2802;SDS011;1409;51.154;6.938;2024-02-14T14:38:27;1.23;;;1.13;;
2802;SDS011;1409;51.154;6.938;2024-02-14T14:40:57;2.47;;;1.40;;
2802;SDS011;1409;51.154;6.938;2024-02-14T14:43:25;1.73;;;1.30;;
2802;SDS011;1409;51.154;6.938;2024-02-14T14:45:54;1.50;;;1.40;;
2802;SDS011;1409;51.154;6.938;2024-02-14T14:48:25;1.43;;;1.30;;
2802;SDS011;1409;51.154;6.938;2024-02-14T14:50:54;1.60;;;1.20;;
2802;SDS011;1409;51.154;6.938;2024-02-14T14:53:23;2.27;;;1.43;;
2802;SDS011;1409;51.154;6.938;2024-02-14T14:55:54;1.70;;;1.20;;
2802;SDS011;1409;51.154;6.938;2024-02-14T14:58:23;3.17;;;1.90;;
2802;SDS011;1409;51.154;6.938;2024-02-14T15:00:54;3.87;;;1.60;;
2802;SDS011;1409;51.154;6.938;2024-02-14T15:03:26;2.67;;;1.50;;
2802;SDS011;1409;51.154;6.938;2024-02-14T15:05:58;1.90;;;1.50;;
2802;SDS011;1409;51.154;6.938;2024-02-14T15:08:27;1.70;;;1.20;;
2802;SDS011;1409;51.154;6.938;2024-02-14T15:10:57;1.43;;;1.10;;
2802;SDS011;1409;51.154;6.938;2024-02-14T15:13:26;1.33;;;1.10;;
2802;SDS011;1409;51.154;6.938;2024-02-14T15:15:54;1.37;;;1.27;;
2802;SDS011;1409;51.154;6.938;2024-02-14T15:18:24;1.60;;;1.40;;
2802;SDS011;1409;51.154;6.938;2024-02-14T15:20:53;2.30;;;2.00;;
2802;SDS011;1409;51.154;6.938;2024-02-14T15:23:22;2.80;;;1.50;;
2802;SDS011;1409;51.154;6.938;2024-02-14T15:25:50;1.97;;;1.23;;
2802;SDS011;1409;51.154;6.938;2024-02-14T15:28:26;1.20;;;1.10;;
2802;SDS011;1409;51.154;6.938;2024-02-14T15:30:55;2.07;;;1.70;;